createdAt,value
2018-01-21T00:02:04.754Z,43.94
2018-01-21T00:04:30.528Z,43.47
2018-01-21T00:06:56.361Z,43.62
2018-01-21T00:09:22.133Z,43.05
2018-01-21T00:11:48.757Z,42.97
2018-01-21T00:14:14.538Z,42.40
2018-01-21T00:16:40.329Z,43.30
2018-01-21T00:19:06.109Z,42.64
2018-01-21T00:21:31.933Z,42.50
2018-01-21T00:23:58.014Z,42.46
2018-01-21T00:26:24.065Z,43.62
2018-01-21T00:28:49.846Z,42.71
2018-01-21T00:31:15.765Z,42.24
2018-01-21T00:33:41.537Z,41.40
2018-01-21T00:36:07.317Z,41.81
2018-01-21T00:38:33.093Z,42.56
2018-01-21T00:40:58.874Z,42.40
2018-01-21T00:43:24.644Z,43.84
2018-01-21T00:45:50.556Z,43.93
2018-01-21T00:48:17.382Z,43.78
2018-01-21T00:50:44.165Z,43.77
2018-01-21T00:53:10.868Z,43.92
2018-01-21T00:55:36.681Z,43.04
2018-01-21T00:58:02.510Z,42.90
2018-01-21T01:00:29.257Z,42.89
2018-01-21T01:02:55.025Z,43.09
2018-01-21T01:05:21.037Z,43.12
2018-01-21T01:07:47.069Z,42.53
2018-01-21T01:10:12.841Z,43.34
2018-01-21T01:12:38.721Z,44.03
2018-01-21T01:15:04.497Z,43.73
2018-01-21T01:17:30.276Z,42.87
2018-01-21T01:19:56.057Z,44.03
2018-01-21T01:22:21.883Z,43.52
2018-01-21T01:24:47.713Z,43.85
2018-01-21T01:27:13.497Z,43.86
2018-01-21T01:29:40.281Z,43.26
2018-01-21T01:32:07.076Z,43.39
2018-01-21T01:34:33.862Z,42.96
2018-01-21T01:36:59.686Z,42.73
2018-01-21T01:39:25.461Z,43.52
2018-01-21T01:41:51.229Z,42.95
2018-01-21T01:44:17.065Z,42.13
2018-01-21T01:46:42.956Z,42.41
2018-01-21T01:49:08.972Z,42.01
2018-01-21T01:51:34.786Z,42.86
2018-01-21T01:54:00.613Z,42.14
2018-01-21T01:56:26.397Z,42.03
2018-01-21T01:58:52.167Z,43.59
2018-01-21T02:01:17.938Z,41.90
2018-01-21T02:03:43.709Z,41.66
2018-01-21T02:06:09.699Z,41.61
2018-01-21T02:08:35.480Z,41.94
2018-01-21T02:11:01.378Z,41.61
2018-01-21T02:13:27.167Z,41.78
2018-01-21T02:15:52.940Z,41.93
2018-01-21T02:18:18.717Z,41.75
2018-01-21T02:20:44.625Z,41.61
2018-01-21T02:23:10.405Z,42.16
2018-01-21T02:25:36.893Z,41.59
2018-01-21T02:28:02.925Z,41.70
2018-01-21T02:30:28.937Z,42.20
2018-01-21T02:32:54.724Z,42.11
2018-01-21T02:38:06.069Z,42.36
2018-01-21T02:40:31.851Z,42.02
2018-01-21T02:42:57.637Z,41.66
2018-01-21T02:45:23.421Z,42.07
2018-01-21T02:47:49.491Z,42.61
2018-01-21T02:50:15.273Z,42.88
2018-01-21T02:52:41.061Z,42.35
2018-01-21T02:55:06.853Z,42.51
2018-01-21T02:57:32.669Z,42.56
2018-01-21T02:59:58.453Z,42.47
2018-01-21T03:02:24.237Z,42.81
2018-01-21T03:04:50.038Z,42.86
2018-01-21T03:07:15.946Z,42.70
2018-01-21T03:09:41.970Z,42.09
2018-01-21T03:12:07.770Z,42.50
2018-01-21T03:14:33.549Z,42.31
2018-01-21T03:16:59.385Z,42.86
2018-01-21T03:19:25.165Z,43.45
2018-01-21T03:21:50.949Z,42.64
2018-01-21T03:24:16.744Z,42.52
2018-01-21T03:26:42.530Z,42.84
2018-01-21T03:29:08.314Z,42.17
2018-01-21T03:31:34.098Z,43.21
2018-01-21T03:33:59.906Z,42.72
2018-01-21T03:36:25.693Z,43.06
2018-01-21T03:38:51.477Z,43.08
2018-01-21T03:41:17.259Z,42.53
2018-01-21T03:43:43.206Z,42.20
2018-01-21T03:46:08.990Z,42.39
2018-01-21T03:48:34.773Z,42.12
2018-01-21T03:51:00.598Z,41.95
2018-01-21T03:53:26.422Z,42.29
2018-01-21T03:55:52.312Z,41.95
2018-01-21T03:58:18.117Z,42.21
2018-01-21T04:00:43.913Z,41.94
2018-01-21T04:03:09.689Z,42.22
2018-01-21T04:05:35.473Z,41.72
2018-01-21T04:08:01.412Z,41.67
2018-01-21T04:10:27.261Z,41.98
2018-01-21T04:12:53.065Z,42.09
2018-01-21T04:15:18.858Z,42.13
2018-01-21T04:17:44.636Z,41.96
2018-01-21T04:20:10.417Z,41.90
2018-01-21T04:22:36.205Z,41.65
2018-01-21T04:25:01.993Z,41.33
2018-01-21T04:27:27.811Z,41.76
2018-01-21T04:29:53.873Z,41.53
2018-01-21T04:32:19.657Z,41.68
2018-01-21T04:34:45.437Z,41.78
2018-01-21T04:37:11.225Z,42.13
2018-01-21T04:39:37.013Z,42.34
2018-01-21T04:42:02.788Z,41.86
2018-01-21T04:44:28.564Z,41.59
2018-01-21T04:46:54.352Z,41.77
2018-01-21T04:49:20.133Z,42.39
2018-01-21T04:51:45.990Z,41.87
2018-01-21T04:54:18.796Z,42.92
2018-01-21T04:56:44.586Z,42.23
2018-01-21T04:59:10.493Z,43.68
2018-01-21T05:01:36.277Z,42.70
2018-01-21T05:04:02.093Z,43.10
2018-01-21T05:06:27.877Z,43.68
2018-01-21T05:08:53.668Z,43.61
2018-01-21T05:11:19.484Z,43.67
2018-01-21T05:13:45.401Z,42.76
2018-01-21T05:16:11.254Z,43.47
2018-01-21T05:18:37.072Z,42.65
2018-01-21T05:21:02.893Z,43.38
2018-01-21T05:23:28.668Z,42.49
2018-01-21T05:25:54.657Z,43.43
2018-01-21T05:28:20.433Z,43.48
2018-01-21T05:30:46.415Z,43.92
2018-01-21T05:33:12.225Z,42.94
2018-01-21T05:35:38.013Z,43.55
2018-01-21T05:38:03.902Z,42.73
2018-01-21T05:40:29.692Z,42.80
2018-01-21T05:42:55.477Z,43.31
2018-01-21T05:45:21.267Z,42.66
2018-01-21T05:47:47.053Z,43.67
2018-01-21T05:50:12.877Z,44.39
2018-01-21T05:52:38.693Z,43.38
2018-01-21T05:55:04.499Z,43.06
2018-01-21T05:57:30.292Z,43.90
2018-01-21T05:59:56.078Z,44.47
2018-01-21T06:02:21.906Z,44.20
2018-01-21T06:04:47.701Z,43.61
2018-01-21T06:07:13.518Z,43.88
2018-01-21T06:09:39.301Z,44.22
2018-01-21T06:12:05.074Z,42.97
2018-01-21T06:14:30.993Z,43.26
2018-01-21T06:16:56.772Z,43.64
2018-01-21T06:19:22.609Z,43.08
2018-01-21T06:21:48.389Z,43.84
2018-01-21T06:24:14.221Z,42.74
2018-01-21T06:26:40.206Z,43.45
2018-01-21T06:29:05.984Z,43.05
2018-01-21T06:31:31.806Z,43.37
2018-01-21T06:33:57.609Z,43.39
2018-01-21T06:36:23.389Z,43.65
2018-01-21T06:38:49.178Z,43.40
2018-01-21T06:41:14.960Z,42.91
2018-01-21T06:43:40.758Z,43.17
2018-01-21T06:46:06.585Z,43.44
2018-01-21T06:48:32.365Z,43.74
2018-01-21T06:50:58.136Z,43.67
2018-01-21T06:53:23.919Z,42.96
2018-01-21T06:55:49.693Z,43.88
2018-01-21T06:58:15.549Z,43.53
2018-01-21T07:00:41.365Z,43.71
2018-01-21T07:03:07.141Z,42.44
2018-01-21T07:05:32.932Z,42.80
2018-01-21T07:07:58.878Z,43.65
2018-01-21T07:10:24.661Z,43.03
2018-01-21T07:12:50.500Z,43.41
2018-01-21T07:15:16.287Z,44.00
2018-01-21T07:17:42.078Z,43.95
2018-01-21T07:20:07.978Z,43.09
2018-01-21T07:22:33.758Z,43.96
2018-01-21T07:24:59.577Z,44.16
2018-01-21T07:27:25.382Z,44.46
2018-01-21T07:29:51.304Z,44.35
2018-01-21T07:32:17.082Z,44.61
2018-01-21T07:34:43.026Z,43.18
2018-01-21T07:37:08.871Z,43.28
2018-01-21T07:39:34.689Z,43.74
2018-01-21T07:42:00.608Z,43.38
2018-01-21T07:44:26.389Z,44.49
2018-01-21T07:46:52.234Z,44.46
2018-01-21T07:49:18.066Z,44.92
2018-01-21T07:51:44.005Z,43.77
2018-01-21T07:54:09.946Z,44.31
2018-01-21T07:56:35.732Z,43.11
2018-01-21T07:59:01.540Z,44.14
2018-01-21T08:01:27.339Z,44.12
2018-01-21T08:03:53.121Z,43.34
2018-01-21T08:06:18.936Z,43.39
2018-01-21T08:08:44.829Z,44.52
2018-01-21T08:11:10.705Z,43.51
2018-01-21T08:13:36.542Z,43.66
2018-01-21T08:16:02.507Z,43.86
2018-01-21T08:18:28.294Z,42.97
2018-01-21T08:20:54.128Z,43.93
2018-01-21T08:23:19.905Z,43.36
2018-01-21T08:25:45.773Z,42.15
2018-01-21T08:28:11.615Z,41.96
2018-01-21T08:30:37.527Z,42.96
2018-01-21T08:33:03.322Z,43.78
2018-01-21T08:38:33.302Z,44.11
2018-01-21T08:41:05.253Z,43.03
2018-01-21T08:43:31.301Z,43.60
2018-01-21T08:45:57.202Z,43.69
2018-01-21T08:48:23.034Z,41.63
2018-01-21T08:50:48.833Z,40.72
2018-01-21T08:53:16.282Z,40.04
2018-01-21T08:55:42.106Z,40.18
2018-01-21T08:58:08.035Z,40.75
2018-01-21T09:00:33.808Z,42.65
2018-01-21T09:02:59.765Z,41.33
2018-01-21T09:05:25.674Z,41.69
2018-01-21T09:07:51.462Z,42.19
2018-01-21T09:10:17.242Z,42.94
2018-01-21T09:12:43.105Z,43.20
2018-01-21T09:15:08.897Z,43.12
2018-01-21T09:17:34.927Z,42.57
2018-01-21T09:20:00.813Z,42.37
2018-01-21T09:22:26.779Z,43.70
2018-01-21T09:24:52.661Z,43.62
2018-01-21T09:27:18.442Z,41.92
2018-01-21T09:29:44.304Z,42.56
2018-01-21T09:32:10.270Z,42.76
2018-01-21T09:34:36.146Z,42.67
2018-01-21T09:37:01.922Z,41.71
2018-01-21T09:39:27.892Z,40.99
2018-01-21T09:41:53.665Z,40.95
2018-01-21T09:44:19.627Z,40.84
2018-01-21T09:46:45.401Z,40.63
2018-01-21T09:49:11.189Z,40.39
2018-01-21T09:51:36.974Z,40.19
2018-01-21T09:54:02.758Z,40.48
2018-01-21T09:56:28.570Z,40.41
2018-01-21T09:58:54.354Z,40.52
2018-01-21T10:01:20.273Z,39.89
2018-01-21T10:03:46.046Z,40.30
2018-01-21T10:06:11.881Z,40.17
2018-01-21T10:08:37.936Z,39.90
2018-01-21T10:11:03.859Z,39.77
2018-01-21T10:13:30.078Z,40.15
2018-01-21T10:15:55.869Z,40.22
2018-01-21T10:18:21.702Z,40.09
2018-01-21T10:20:47.485Z,39.96
2018-01-21T10:23:13.270Z,39.98
2018-01-21T10:25:39.057Z,40.00
2018-01-21T10:28:05.009Z,40.20
2018-01-21T10:30:30.932Z,40.10
2018-01-21T10:32:56.855Z,40.02
2018-01-21T10:35:23.045Z,39.97
2018-01-21T10:37:48.826Z,39.60
2018-01-21T10:40:14.730Z,39.83
2018-01-21T10:42:40.526Z,40.26
2018-01-21T10:45:06.306Z,40.59
2018-01-21T10:47:32.083Z,40.25
2018-01-21T10:49:58.396Z,40.30
2018-01-21T10:52:24.210Z,40.73
2018-01-21T10:54:50.081Z,41.36
2018-01-21T10:57:15.882Z,41.02
2018-01-21T10:59:41.834Z,40.96
2018-01-21T11:02:07.613Z,41.48
2018-01-21T11:04:33.401Z,41.52
2018-01-21T11:06:59.354Z,41.71
2018-01-21T11:09:25.138Z,41.66
2018-01-21T11:11:50.977Z,41.57
2018-01-21T11:14:16.785Z,41.85
2018-01-21T11:16:42.635Z,41.87
2018-01-21T11:19:08.433Z,41.88
2018-01-21T11:21:34.354Z,42.02
2018-01-21T11:24:00.318Z,42.34
2018-01-21T11:26:26.102Z,42.89
2018-01-21T11:28:52.046Z,43.10
2018-01-21T11:31:18.105Z,43.57
2018-01-21T11:33:43.967Z,42.85
2018-01-21T11:36:09.789Z,42.83
2018-01-21T11:38:35.622Z,42.51
2018-01-21T11:41:01.409Z,42.39
2018-01-21T11:43:27.238Z,42.39
2018-01-21T11:45:53.043Z,42.78
2018-01-21T11:48:19.052Z,43.06
2018-01-21T11:50:44.856Z,42.27
2018-01-21T11:53:10.710Z,42.72
2018-01-21T11:55:37.647Z,42.96
2018-01-21T11:58:04.298Z,42.58
2018-01-21T12:00:30.133Z,42.56
2018-01-21T12:02:55.962Z,42.45
2018-01-21T12:05:21.781Z,42.37
2018-01-21T12:07:47.614Z,42.22
2018-01-21T12:10:13.583Z,41.94
2018-01-21T12:12:39.372Z,42.14
2018-01-21T12:15:05.198Z,41.95
2018-01-21T12:17:31.110Z,41.99
2018-01-21T12:19:56.929Z,42.75
2018-01-21T12:22:22.755Z,43.29
2018-01-21T12:24:48.574Z,42.15
2018-01-21T12:27:14.379Z,42.11
2018-01-21T12:29:40.309Z,42.16
2018-01-21T12:32:06.288Z,42.39
2018-01-21T12:34:32.485Z,44.28
2018-01-21T12:36:58.382Z,44.03
2018-01-21T12:39:24.194Z,44.32
2018-01-21T12:41:50.014Z,44.30
2018-01-21T12:44:15.793Z,43.56
2018-01-21T12:46:41.622Z,43.29
2018-01-21T12:49:07.426Z,44.20
2018-01-21T12:51:33.429Z,44.06
2018-01-21T12:53:59.227Z,43.43
2018-01-21T12:56:25.017Z,43.53
2018-01-21T12:58:50.837Z,44.63
2018-01-21T13:01:16.621Z,43.51
2018-01-21T13:03:42.442Z,43.89
2018-01-21T13:06:08.225Z,44.75
2018-01-21T13:08:34.043Z,44.07
2018-01-21T13:10:59.954Z,43.48
2018-01-21T13:13:25.953Z,43.86
2018-01-21T13:15:51.985Z,44.30
2018-01-21T13:18:17.766Z,44.83
2018-01-21T13:20:43.583Z,43.94
2018-01-21T13:23:09.386Z,43.44
2018-01-21T13:25:35.222Z,44.51
2018-01-21T13:28:01.007Z,44.04
2018-01-21T13:30:26.818Z,45.11
2018-01-21T13:32:52.893Z,43.89
2018-01-21T13:35:18.678Z,44.28
2018-01-21T13:37:44.509Z,44.60
2018-01-21T13:40:10.303Z,44.25
2018-01-21T13:42:36.089Z,43.44
2018-01-21T13:45:01.952Z,43.31
2018-01-21T13:47:27.965Z,43.52
2018-01-21T13:49:53.747Z,45.22
2018-01-21T13:52:19.524Z,43.61
2018-01-21T13:54:45.487Z,42.99
2018-01-21T13:57:11.614Z,42.75
2018-01-21T13:59:37.393Z,43.04
2018-01-21T14:02:03.247Z,43.80
2018-01-21T14:04:29.201Z,44.12
2018-01-21T14:06:55.005Z,44.64
2018-01-21T14:09:20.960Z,44.67
2018-01-21T14:11:46.793Z,44.49
2018-01-21T14:14:12.572Z,43.72
2018-01-21T14:16:38.370Z,44.14
2018-01-21T14:19:04.270Z,44.18
2018-01-21T14:21:30.085Z,44.31
2018-01-21T14:23:55.989Z,44.89
2018-01-21T14:26:21.831Z,44.35
2018-01-21T14:28:47.681Z,43.33
2018-01-21T14:31:13.649Z,43.44
2018-01-21T14:33:39.464Z,43.18
2018-01-21T14:36:05.473Z,43.79
2018-01-21T14:38:31.290Z,44.11
2018-01-21T14:40:57.073Z,44.60
2018-01-21T14:43:22.850Z,45.05
2018-01-21T14:45:48.670Z,43.56
2018-01-21T14:48:14.442Z,44.25
2018-01-21T14:50:40.260Z,43.20
2018-01-21T14:53:06.042Z,43.18
2018-01-21T14:55:32.097Z,43.56
2018-01-21T14:57:57.976Z,43.30
2018-01-21T15:00:23.805Z,44.47
2018-01-21T15:02:49.591Z,43.50
2018-01-21T15:05:15.373Z,44.02
2018-01-21T15:07:41.208Z,43.40
2018-01-21T15:10:07.000Z,42.95
2018-01-21T15:12:32.821Z,43.08
2018-01-21T15:14:58.897Z,42.78
2018-01-21T15:17:24.712Z,42.78
2018-01-21T15:19:50.648Z,42.60
2018-01-21T15:22:16.465Z,43.92
2018-01-21T15:24:42.277Z,43.94
2018-01-21T15:27:08.063Z,42.87
2018-01-21T15:29:33.876Z,43.02
2018-01-21T15:31:59.660Z,43.17
2018-01-21T15:34:25.474Z,43.04
2018-01-21T15:36:51.275Z,42.63
2018-01-21T15:39:17.081Z,43.25
2018-01-21T15:41:42.897Z,43.42
2018-01-21T15:44:08.676Z,44.71
2018-01-21T15:46:34.502Z,44.96
2018-01-21T15:49:00.317Z,45.43
2018-01-21T15:51:26.156Z,45.00
2018-01-21T15:53:51.977Z,43.45
2018-01-21T15:56:18.121Z,43.33
2018-01-21T15:58:43.919Z,43.99
2018-01-21T16:01:09.697Z,43.86
2018-01-21T16:03:35.717Z,43.59
2018-01-21T16:06:01.558Z,43.29
2018-01-21T16:08:27.341Z,42.66
2018-01-21T16:10:53.199Z,43.27
2018-01-21T16:13:19.133Z,45.24
2018-01-21T16:15:44.941Z,44.60
2018-01-21T16:18:10.754Z,44.19
2018-01-21T16:20:36.539Z,44.62
2018-01-21T16:23:02.382Z,43.73
2018-01-21T16:25:28.303Z,44.08
2018-01-21T16:27:54.085Z,43.26
2018-01-21T16:30:19.913Z,44.13
2018-01-21T16:32:45.695Z,43.88
2018-01-21T16:35:11.464Z,42.81
2018-01-21T16:37:43.474Z,42.66
2018-01-21T16:40:09.253Z,42.87
2018-01-21T16:42:35.044Z,42.52
2018-01-21T16:45:00.829Z,42.32
2018-01-21T16:47:26.672Z,42.75
2018-01-21T16:49:52.471Z,42.37
2018-01-21T16:52:18.339Z,42.69
2018-01-21T16:54:44.121Z,42.35
2018-01-21T16:57:10.004Z,42.28
2018-01-21T16:59:35.784Z,42.33
2018-01-21T17:02:01.622Z,42.36
2018-01-21T17:04:27.445Z,42.20
2018-01-21T17:06:53.237Z,42.02
2018-01-21T17:09:19.019Z,42.41
2018-01-21T17:11:44.805Z,42.28
2018-01-21T17:14:10.590Z,42.62
2018-01-21T17:16:36.372Z,43.57
2018-01-21T17:19:02.152Z,43.58
2018-01-21T17:21:27.933Z,43.31
2018-01-21T17:23:53.881Z,43.44
2018-01-21T17:26:19.694Z,43.42
2018-01-21T17:28:45.598Z,43.15
2018-01-21T17:31:11.390Z,42.47
2018-01-21T17:33:37.579Z,42.99
2018-01-21T17:36:03.561Z,42.85
2018-01-21T17:38:29.476Z,42.95
2018-01-21T17:40:55.266Z,42.82
2018-01-21T17:43:21.084Z,43.13
2018-01-21T17:45:46.873Z,42.69
2018-01-21T17:48:12.686Z,43.71
2018-01-21T17:50:38.473Z,43.25
2018-01-21T17:53:04.602Z,42.49
2018-01-21T17:55:30.414Z,42.47
2018-01-21T17:57:56.245Z,42.54
2018-01-21T18:00:22.036Z,42.45
2018-01-21T18:02:47.829Z,42.24
2018-01-21T18:05:13.810Z,42.52
2018-01-21T18:07:39.795Z,42.67
2018-01-21T18:10:05.707Z,42.69
2018-01-21T18:12:31.529Z,42.62
2018-01-21T18:14:57.310Z,42.48
2018-01-21T18:17:23.171Z,42.57
2018-01-21T18:19:49.104Z,42.54
2018-01-21T18:22:14.938Z,42.44
2018-01-21T18:24:40.733Z,41.98
2018-01-21T18:27:06.556Z,41.94
2018-01-21T18:29:32.446Z,41.98
2018-01-21T18:31:58.229Z,41.98
2018-01-21T18:34:24.077Z,42.23
2018-01-21T18:36:49.993Z,42.30
2018-01-21T18:39:15.996Z,42.32
2018-01-21T18:41:42.206Z,42.39
2018-01-21T18:44:08.287Z,42.43
2018-01-21T18:46:34.086Z,42.52
2018-01-21T18:48:59.950Z,42.33
2018-01-21T18:51:25.774Z,42.37
2018-01-21T18:53:51.565Z,42.33
2018-01-21T18:56:17.342Z,42.90
2018-01-21T18:58:46.580Z,42.23
2018-01-21T19:01:12.418Z,42.30
2018-01-21T19:03:38.234Z,42.36
2018-01-21T19:06:04.010Z,42.70
2018-01-21T19:08:29.834Z,42.94
2018-01-21T19:10:55.721Z,42.57
2018-01-21T19:13:21.548Z,42.28
2018-01-21T19:15:47.336Z,42.13
2018-01-21T19:18:13.195Z,42.35
2018-01-21T19:20:39.041Z,41.85
2018-01-21T19:23:04.878Z,41.99
2018-01-21T19:25:30.903Z,42.28
2018-01-21T19:27:56.706Z,41.83
2018-01-21T19:30:22.497Z,41.92
2018-01-21T19:32:48.422Z,41.98
2018-01-21T19:35:14.221Z,42.24
2018-01-21T19:37:40.078Z,42.53
2018-01-21T19:43:09.074Z,42.29
2018-01-21T19:45:35.134Z,42.32
2018-01-21T19:48:00.978Z,42.48
2018-01-21T19:50:26.766Z,42.10
2018-01-21T19:52:52.701Z,41.96
2018-01-21T19:55:18.521Z,41.57
2018-01-21T19:57:44.462Z,41.53
2018-01-21T20:00:10.261Z,41.45
2018-01-21T20:02:36.067Z,41.42
2018-01-21T20:05:01.899Z,41.64
2018-01-21T20:07:27.870Z,41.79
2018-01-21T20:09:53.688Z,42.13
2018-01-21T20:12:19.524Z,41.93
2018-01-21T20:14:45.337Z,41.54
2018-01-21T20:17:16.154Z,41.57
2018-01-21T20:19:46.836Z,41.57
2018-01-21T20:22:14.137Z,41.65
2018-01-21T20:24:41.599Z,41.41
2018-01-21T20:27:07.699Z,41.35
2018-01-21T20:29:34.639Z,41.17
2018-01-21T20:32:01.117Z,41.03
2018-01-21T20:34:28.543Z,41.04
2018-01-21T20:36:55.496Z,41.30
2018-01-21T20:39:23.009Z,41.33
2018-01-21T20:41:51.178Z,41.46
2018-01-21T20:44:16.974Z,41.46
2018-01-21T20:46:46.299Z,41.25
2018-01-21T20:49:12.199Z,41.30
2018-01-21T20:51:46.151Z,41.16
2018-01-21T20:56:52.285Z,41.19
2018-01-21T20:59:18.340Z,41.20
2018-01-21T21:01:44.398Z,41.24
2018-01-21T21:04:10.294Z,41.21
2018-01-21T21:06:37.295Z,41.17
2018-01-21T21:09:03.414Z,41.58
2018-01-21T21:11:29.431Z,41.16
2018-01-21T21:13:55.488Z,41.23
2018-01-21T21:16:21.270Z,41.18
2018-01-21T21:18:47.061Z,41.19
2018-01-21T21:21:15.654Z,40.80
2018-01-21T21:23:41.590Z,40.80
2018-01-21T21:26:10.521Z,40.89
2018-01-21T21:28:36.465Z,40.81
2018-01-21T21:31:03.793Z,40.89
2018-01-21T21:33:30.143Z,40.78
2018-01-21T21:35:57.412Z,40.63
2018-01-21T21:38:24.648Z,40.65
2018-01-21T21:40:50.795Z,40.82
2018-01-21T21:43:16.765Z,40.24
2018-01-21T21:45:46.255Z,40.29
2018-01-21T21:48:18.162Z,40.34
2018-01-21T21:50:49.738Z,40.30
2018-01-21T21:53:15.939Z,40.54
2018-01-21T21:55:41.736Z,40.56
2018-01-21T21:58:07.559Z,40.57
2018-01-21T22:00:33.356Z,40.70
2018-01-21T22:02:59.178Z,40.44
2018-01-21T22:05:24.958Z,40.53
2018-01-21T22:07:50.783Z,40.41
2018-01-21T22:10:16.578Z,40.25
2018-01-21T22:12:42.397Z,40.32
2018-01-21T22:15:08.235Z,40.38
2018-01-21T22:17:34.010Z,40.22
2018-01-21T22:19:59.846Z,40.37
2018-01-21T22:22:25.678Z,40.58
2018-01-21T22:24:51.461Z,40.53
2018-01-21T22:27:17.248Z,40.51
2018-01-21T22:29:43.030Z,40.40
2018-01-21T22:32:08.833Z,40.24
2018-01-21T22:34:34.648Z,40.43
2018-01-21T22:37:00.469Z,40.42
2018-01-21T22:39:26.289Z,40.33
2018-01-21T22:41:52.209Z,40.46
2018-01-21T22:44:18.030Z,40.40
2018-01-21T22:46:43.809Z,40.24
2018-01-21T22:49:09.591Z,40.28
2018-01-21T22:51:35.372Z,40.36
2018-01-21T22:54:01.150Z,40.12
2018-01-21T22:56:26.968Z,40.03
2018-01-21T22:58:52.834Z,40.31
2018-01-21T23:01:18.626Z,39.94
2018-01-21T23:03:44.461Z,40.02
2018-01-21T23:06:10.259Z,39.90
2018-01-21T23:08:36.089Z,39.92
2018-01-21T23:11:01.926Z,39.83
2018-01-21T23:13:27.730Z,39.83
2018-01-21T23:15:53.520Z,39.92
2018-01-21T23:18:19.345Z,39.95
2018-01-21T23:20:51.286Z,39.93
2018-01-21T23:23:17.178Z,40.00
2018-01-21T23:25:42.955Z,40.00
2018-01-21T23:28:08.769Z,39.93
2018-01-21T23:30:34.558Z,39.81
2018-01-21T23:33:00.379Z,39.69
2018-01-21T23:35:26.157Z,39.95
2018-01-21T23:37:51.979Z,39.80
2018-01-21T23:40:17.802Z,39.84
2018-01-21T23:42:43.625Z,40.03
2018-01-21T23:45:09.402Z,39.98
2018-01-21T23:47:35.181Z,40.16
2018-01-21T23:50:00.960Z,40.19
2018-01-21T23:52:26.746Z,40.15
2018-01-21T23:54:52.601Z,39.93
2018-01-21T23:57:18.378Z,40.06
2018-01-21T23:59:44.164Z,40.14
